LOT29M EDDH-EPWA
Flight info
| Callsign | LOT29M |
|---|---|
| Flight time | N/A |
| Altitude | 35000 |
| Route | RAMAR Z998 RATMO DCT SUBIX DCT OBOKU P150 BIMPA |
| Aircraft | E75L/M-SDE3GILORVW/S |
Departure
| Time | 2026-05-04 10:19 |
|---|---|
| Airport | Hamburg Helmut Schmidt Airport (EDDH) |
Arrival
| Time | N/A |
|---|---|
| Airport | Warsaw Chopin Airport (EPWA) |
| Time | Latitude | Longitude | Altitude | Speed | Heading |
|---|---|---|---|---|---|
| 2026-05-04 09:52 | 53.62882 | 10.00231 | 49 ft | 0 kts | 122° |
| 2026-05-04 10:10 | 53.62888 | 10.00215 | 49 ft | 3 kts | 122° |
| 2026-05-04 10:11 | 53.62898 | 10.00188 | 46 ft | 3 kts | 122° |
| 2026-05-04 10:11 | 53.62908 | 10.00162 | 48 ft | 3 kts | 122° |
| 2026-05-04 10:11 | 53.62918 | 10.00136 | 48 ft | 3 kts | 122° |
| 2026-05-04 10:11 | 53.62928 | 10.00109 | 49 ft | 3 kts | 122° |
| 2026-05-04 10:12 | 53.62932 | 10.00100 | 46 ft | 0 kts | 123° |
| 2026-05-04 10:16 | 53.62757 | 10.00163 | 49 ft | 29 kts | 153° |
| 2026-05-04 10:16 | 53.62613 | 10.00254 | 50 ft | 19 kts | 184° |
| 2026-05-04 10:16 | 53.62571 | 10.00205 | 50 ft | 0 kts | 243° |
| 2026-05-04 10:19 | 53.65811 | 9.96997 | 2537 ft | 168 kts | 324° |
| 2026-05-04 10:19 | 53.66831 | 9.96013 | 3516 ft | 174 kts | 330° |
| 2026-05-04 10:19 | 53.68001 | 9.95231 | 4062 ft | 185 kts | 340° |
| 2026-05-04 10:19 | 53.69289 | 9.94792 | 4615 ft | 199 kts | 350° |
| 2026-05-04 10:20 | 53.70761 | 9.94684 | 5083 ft | 223 kts | 355° |
| 2026-05-04 10:20 | 53.72363 | 9.94961 | 5564 ft | 248 kts | 18° |
| 2026-05-04 10:20 | 53.73818 | 9.96728 | 6098 ft | 270 kts | 50° |
| 2026-05-04 10:20 | 53.74824 | 9.99524 | 6659 ft | 283 kts | 60° |
| 2026-05-04 10:21 | 53.75756 | 10.02521 | 7232 ft | 293 kts | 63° |
| 2026-05-04 10:21 | 53.76661 | 10.05628 | 7935 ft | 297 kts | 63° |
| 2026-05-04 10:21 | 53.77568 | 10.08779 | 8607 ft | 301 kts | 64° |
| 2026-05-04 10:21 | 53.78499 | 10.12013 | 9279 ft | 305 kts | 64° |
| 2026-05-04 10:22 | 53.80389 | 10.18598 | 10314 ft | 323 kts | 64° |
| 2026-05-04 10:22 | 53.81388 | 10.22082 | 10684 ft | 335 kts | 64° |
| 2026-05-04 10:22 | 53.82407 | 10.25640 | 11288 ft | 339 kts | 64° |
| 2026-05-04 10:23 | 53.83381 | 10.29306 | 11890 ft | 343 kts | 73° |
| 2026-05-04 10:23 | 53.83767 | 10.33270 | 12520 ft | 345 kts | 88° |
| 2026-05-04 10:25 | 53.81110 | 10.62148 | 17058 ft | 369 kts | 107° |
| 2026-05-04 10:25 | 53.80365 | 10.66342 | 17697 ft | 371 kts | 114° |
| 2026-05-04 10:25 | 53.79399 | 10.70377 | 18345 ft | 374 kts | 118° |
| 2026-05-04 10:25 | 53.78266 | 10.74331 | 18924 ft | 375 kts | 125° |
| 2026-05-04 10:26 | 53.76902 | 10.78162 | 19541 ft | 379 kts | 126° |
| 2026-05-04 10:26 | 53.75518 | 10.81943 | 20180 ft | 383 kts | 127° |
| 2026-05-04 10:26 | 53.74092 | 10.85788 | 20841 ft | 386 kts | 127° |
| 2026-05-04 10:26 | 53.72741 | 10.89694 | 21481 ft | 393 kts | 118° |
| 2026-05-04 10:27 | 53.71966 | 10.94215 | 22067 ft | 403 kts | 106° |
| 2026-05-04 10:27 | 53.71446 | 10.98924 | 22642 ft | 409 kts | 103° |
| 2026-05-04 10:27 | 53.70988 | 11.03677 | 23210 ft | 414 kts | 103° |
| 2026-05-04 10:27 | 53.70533 | 11.08470 | 23758 ft | 416 kts | 105° |
| 2026-05-04 10:28 | 53.69899 | 11.13241 | 24258 ft | 419 kts | 107° |
| 2026-05-04 10:28 | 53.69229 | 11.18024 | 24771 ft | 423 kts | 107° |
| 2026-05-04 10:28 | 53.68530 | 11.22881 | 25391 ft | 424 kts | 108° |
| 2026-05-04 10:28 | 53.67831 | 11.27708 | 25913 ft | 427 kts | 107° |
| 2026-05-04 10:29 | 53.67118 | 11.32619 | 26405 ft | 431 kts | 107° |
| 2026-05-04 10:29 | 53.66404 | 11.37522 | 26863 ft | 434 kts | 107° |
| 2026-05-04 10:29 | 53.65682 | 11.42468 | 27319 ft | 437 kts | 107° |
| 2026-05-04 10:29 | 53.64946 | 11.47492 | 27766 ft | 439 kts | 107° |
| 2026-05-04 10:30 | 53.64213 | 11.52488 | 28208 ft | 442 kts | 107° |
| 2026-05-04 10:30 | 53.63470 | 11.57530 | 28647 ft | 445 kts | 107° |
| 2026-05-04 10:30 | 53.62725 | 11.62573 | 29071 ft | 448 kts | 107° |
| 2026-05-04 10:30 | 53.61962 | 11.67720 | 29510 ft | 451 kts | 107° |
| 2026-05-04 10:31 | 53.61199 | 11.72851 | 29882 ft | 455 kts | 107° |
| 2026-05-04 10:31 | 53.60423 | 11.78050 | 30038 ft | 461 kts | 107° |
| 2026-05-04 10:32 | 53.55720 | 12.09216 | 32546 ft | 454 kts | 108° |
| 2026-05-04 10:33 | 53.54939 | 12.14333 | 32944 ft | 453 kts | 108° |
| 2026-05-04 10:33 | 53.54159 | 12.19432 | 33335 ft | 452 kts | 109° |
| 2026-05-04 10:33 | 53.53374 | 12.24539 | 33710 ft | 451 kts | 109° |
| 2026-05-04 10:33 | 53.52592 | 12.29616 | 34058 ft | 450 kts | 109° |
| 2026-05-04 10:34 | 53.51797 | 12.34753 | 34370 ft | 449 kts | 109° |
| 2026-05-04 10:34 | 53.51010 | 12.39832 | 34664 ft | 449 kts | 109° |
| 2026-05-04 10:34 | 53.50233 | 12.44835 | 34838 ft | 442 kts | 108° |
| 2026-05-04 10:34 | 53.49452 | 12.49837 | 34904 ft | 444 kts | 109° |
| 2026-05-04 10:35 | 53.47872 | 12.59922 | 34961 ft | 452 kts | 108° |
| 2026-05-04 10:35 | 53.46255 | 12.70177 | 34950 ft | 451 kts | 108° |
| 2026-05-04 10:36 | 53.44645 | 12.80327 | 34960 ft | 451 kts | 108° |